createdAt,value
2023-03-06T00:01:19.848Z,71.31
2023-03-06T00:03:48.744Z,71.42
2023-03-06T00:06:17.462Z,71.07
2023-03-06T00:08:46.142Z,70.75
2023-03-06T00:11:15.517Z,70.74
2023-03-06T00:13:44.190Z,70.73
2023-03-06T00:16:14.318Z,70.76
2023-03-06T00:18:44.120Z,70.91
2023-03-06T00:21:12.665Z,71.35
2023-03-06T00:23:41.364Z,71.10
2023-03-06T00:26:11.031Z,70.70
2023-03-06T00:28:41.831Z,71.26
2023-03-06T00:31:11.327Z,71.14
2023-03-06T00:33:43.274Z,70.81
2023-03-06T00:36:12.473Z,70.49
2023-03-06T00:38:42.902Z,70.75
2023-03-06T00:41:12.437Z,71.01
2023-03-06T00:43:41.319Z,70.81
2023-03-06T00:46:10.045Z,71.02
2023-03-06T00:48:40.290Z,71.63
2023-03-06T00:51:08.877Z,70.87
2023-03-06T00:53:37.513Z,70.76
2023-03-06T00:56:08.992Z,71.20
2023-03-06T00:58:38.219Z,70.63
2023-03-06T01:01:07.105Z,71.21
2023-03-06T01:03:35.774Z,71.19
2023-03-06T01:06:06.020Z,71.05
2023-03-06T01:08:37.263Z,70.64
2023-03-06T01:11:06.102Z,70.96
2023-03-06T01:13:34.848Z,70.96
2023-03-06T01:16:11.456Z,71.28
2023-03-06T01:18:40.309Z,71.38
2023-03-06T01:21:10.384Z,70.32
2023-03-06T01:23:39.057Z,70.70
2023-03-06T01:26:08.228Z,70.19
2023-03-06T01:28:39.081Z,71.14
2023-03-06T01:31:08.785Z,70.40
2023-03-06T01:33:38.102Z,70.42
2023-03-06T01:36:09.828Z,70.74
2023-03-06T01:38:38.957Z,70.42
2023-03-06T01:41:07.836Z,70.07
2023-03-06T01:43:37.894Z,70.63
2023-03-06T01:46:34.738Z,69.95
2023-03-06T01:49:07.579Z,70.11
2023-03-06T01:51:40.348Z,70.11
2023-03-06T01:54:12.643Z,70.54
2023-03-06T01:56:42.300Z,70.47
2023-03-06T01:59:11.193Z,70.71
2023-03-06T02:01:41.727Z,70.83
2023-03-06T02:04:10.999Z,70.10
2023-03-06T02:06:44.043Z,69.67
2023-03-06T02:09:14.066Z,69.75
2023-03-06T02:11:44.119Z,70.31
2023-03-06T02:14:14.042Z,69.88
2023-03-06T02:16:43.051Z,70.16
2023-03-06T02:19:30.446Z,70.81
2023-03-06T02:22:00.636Z,70.07
2023-03-06T02:24:36.566Z,69.39
2023-03-06T02:27:07.432Z,69.81
2023-03-06T02:29:36.783Z,69.77
2023-03-06T02:32:06.456Z,69.58
2023-03-06T02:34:55.983Z,69.40
2023-03-06T02:37:25.928Z,68.98
2023-03-06T02:40:00.740Z,68.58
2023-03-06T02:42:31.949Z,68.68
2023-03-06T02:45:02.895Z,69.15
2023-03-06T02:47:32.475Z,68.89
2023-03-06T02:50:01.039Z,69.22
2023-03-06T02:52:29.840Z,68.95
2023-03-06T02:54:58.441Z,69.25
2023-03-06T02:57:27.093Z,69.29
2023-03-06T02:59:57.452Z,69.13
2023-03-06T03:02:26.258Z,68.55
2023-03-06T03:04:55.095Z,68.15
2023-03-06T03:07:25.111Z,67.22
2023-03-06T03:09:56.182Z,67.33
2023-03-06T03:12:25.091Z,66.95
2023-03-06T03:14:53.833Z,67.20
2023-03-06T03:17:23.768Z,67.25
2023-03-06T03:19:52.529Z,66.92
2023-03-06T03:22:21.440Z,66.98
2023-03-06T03:24:50.092Z,67.21
2023-03-06T03:27:18.890Z,67.24
2023-03-06T03:29:47.591Z,67.42
2023-03-06T03:32:16.345Z,67.14
2023-03-06T03:34:46.394Z,67.67
2023-03-06T03:37:15.261Z,68.00
2023-03-06T03:39:44.743Z,68.22
2023-03-06T03:42:13.812Z,67.94
2023-03-06T03:44:42.387Z,68.07
2023-03-06T03:47:11.079Z,68.13
2023-03-06T03:49:40.693Z,68.48
2023-03-06T03:52:10.787Z,67.87
2023-03-06T03:54:41.591Z,68.63
2023-03-06T03:57:10.231Z,68.09
2023-03-06T03:59:42.963Z,68.90
2023-03-06T04:02:28.073Z,67.89
2023-03-06T04:05:09.487Z,67.75
2023-03-06T04:07:39.835Z,67.77
2023-03-06T04:10:09.990Z,67.85
2023-03-06T04:12:39.162Z,67.84
2023-03-06T04:15:09.510Z,67.91
2023-03-06T04:17:38.911Z,67.61
2023-03-06T04:20:12.922Z,67.77
2023-03-06T04:22:44.015Z,68.78
2023-03-06T04:25:13.891Z,68.86
2023-03-06T04:27:42.756Z,68.96
2023-03-06T04:30:13.716Z,68.60
2023-03-06T04:32:42.959Z,69.06
2023-03-06T04:35:12.035Z,68.95
2023-03-06T04:37:51.657Z,68.86
2023-03-06T04:40:27.224Z,68.15
2023-03-06T04:42:56.654Z,68.23
2023-03-06T04:45:26.045Z,68.33
2023-03-06T04:47:55.050Z,68.61
2023-03-06T04:50:24.889Z,68.75
2023-03-06T04:52:57.998Z,68.16
2023-03-06T04:55:27.084Z,69.13
2023-03-06T04:57:55.789Z,68.98
2023-03-06T05:00:30.204Z,68.97
2023-03-06T05:02:59.823Z,68.12
2023-03-06T05:05:29.149Z,68.69
2023-03-06T05:07:59.237Z,68.61
2023-03-06T05:10:27.782Z,68.24
2023-03-06T05:12:56.520Z,68.84
2023-03-06T05:15:25.325Z,68.57
2023-03-06T05:17:53.976Z,68.00
2023-03-06T05:20:22.591Z,68.74
2023-03-06T05:22:51.264Z,68.04
2023-03-06T05:25:21.463Z,68.91
2023-03-06T05:27:50.127Z,68.02
2023-03-06T05:30:21.097Z,68.19
2023-03-06T05:32:49.985Z,67.14
2023-03-06T05:35:20.474Z,67.73
2023-03-06T05:37:49.602Z,67.69
2023-03-06T05:40:21.153Z,67.52
2023-03-06T05:42:49.791Z,68.04
2023-03-06T05:45:18.528Z,68.74
2023-03-06T05:47:47.294Z,68.25
2023-03-06T05:50:15.954Z,68.31
2023-03-06T05:52:44.584Z,68.59
2023-03-06T05:55:14.094Z,68.79
2023-03-06T05:57:44.266Z,68.23
2023-03-06T06:00:14.766Z,68.54
2023-03-06T06:02:45.584Z,68.25
2023-03-06T06:05:14.637Z,68.89
2023-03-06T06:07:43.646Z,68.69
2023-03-06T06:10:13.705Z,68.06
2023-03-06T06:12:43.952Z,67.83
2023-03-06T06:15:12.733Z,67.40
2023-03-06T06:17:41.351Z,67.88
2023-03-06T06:20:12.035Z,67.97
2023-03-06T06:22:41.223Z,66.98
2023-03-06T06:25:10.417Z,67.69
2023-03-06T06:27:39.078Z,67.28
2023-03-06T06:30:12.516Z,66.64
2023-03-06T06:32:41.590Z,66.77
2023-03-06T06:35:11.107Z,66.79
2023-03-06T06:37:39.774Z,66.35
2023-03-06T06:40:09.677Z,65.97
2023-03-06T06:42:40.150Z,66.66
2023-03-06T06:45:12.003Z,66.68
2023-03-06T06:47:41.443Z,66.14
2023-03-06T06:50:13.459Z,66.42
2023-03-06T06:52:42.401Z,66.68
2023-03-06T06:55:11.927Z,66.36
2023-03-06T06:57:41.918Z,67.14
2023-03-06T07:00:14.569Z,67.15
2023-03-06T07:02:43.320Z,67.30
2023-03-06T07:05:12.306Z,67.12
2023-03-06T07:07:40.974Z,67.26
2023-03-06T07:10:14.593Z,66.79
2023-03-06T07:12:43.619Z,67.79
2023-03-06T07:15:15.978Z,67.30
2023-03-06T07:17:44.779Z,67.62
2023-03-06T07:20:13.984Z,67.44
2023-03-06T07:22:50.797Z,66.72
2023-03-06T07:25:20.725Z,67.17
2023-03-06T07:27:53.904Z,66.46
2023-03-06T07:30:25.277Z,67.19
2023-03-06T07:32:54.920Z,67.24
2023-03-06T07:35:24.012Z,66.64
2023-03-06T07:37:52.852Z,66.63
2023-03-06T07:40:21.883Z,66.80
2023-03-06T07:42:50.842Z,66.07
2023-03-06T07:45:27.765Z,67.18
2023-03-06T07:47:56.467Z,66.49
2023-03-06T07:50:25.096Z,66.23
2023-03-06T07:52:54.125Z,66.49
2023-03-06T07:55:22.771Z,66.80
2023-03-06T07:57:52.190Z,66.26
2023-03-06T08:00:21.797Z,65.93
2023-03-06T08:02:51.732Z,66.74
2023-03-06T08:05:20.567Z,66.47
2023-03-06T08:07:49.128Z,66.91
2023-03-06T08:10:18.384Z,66.56
2023-03-06T08:12:47.045Z,66.93
2023-03-06T08:15:15.988Z,67.21
2023-03-06T08:17:44.685Z,67.21
2023-03-06T08:20:15.652Z,67.03
2023-03-06T08:22:44.332Z,67.13
2023-03-06T08:25:13.535Z,66.86
2023-03-06T08:27:42.289Z,66.35
2023-03-06T08:30:12.059Z,67.49
2023-03-06T08:32:41.029Z,66.28
2023-03-06T08:35:10.197Z,66.63
2023-03-06T08:37:40.255Z,66.49
2023-03-06T08:40:10.429Z,66.84
2023-03-06T08:42:39.292Z,66.19
2023-03-06T08:45:09.303Z,66.55
2023-03-06T08:47:38.061Z,66.85
2023-03-06T08:50:07.395Z,67.00
2023-03-06T08:52:36.171Z,65.83
2023-03-06T08:55:06.948Z,65.18
2023-03-06T08:57:35.622Z,65.39
2023-03-06T09:00:06.828Z,64.75
2023-03-06T09:02:35.799Z,64.55
2023-03-06T09:05:07.456Z,64.62
2023-03-06T09:07:36.580Z,64.71
2023-03-06T09:10:07.484Z,65.03
2023-03-06T09:12:49.444Z,65.16
2023-03-06T09:15:20.348Z,65.75
2023-03-06T09:17:49.210Z,65.75
2023-03-06T09:20:18.352Z,65.26
2023-03-06T09:22:47.114Z,65.31
2023-03-06T09:25:20.464Z,65.35
2023-03-06T09:27:58.246Z,65.26
2023-03-06T09:30:30.720Z,65.13
2023-03-06T09:32:59.437Z,65.88
2023-03-06T09:35:28.089Z,66.17
2023-03-06T09:37:56.689Z,66.54
2023-03-06T09:40:35.234Z,66.52
2023-03-06T09:43:03.821Z,66.60
2023-03-06T09:45:35.347Z,65.79
2023-03-06T09:48:05.762Z,65.22
2023-03-06T09:50:38.907Z,64.78
2023-03-06T09:53:30.560Z,65.40
2023-03-06T09:56:03.410Z,65.34
2023-03-06T09:58:33.543Z,67.42
2023-03-06T10:01:05.134Z,66.86
2023-03-06T10:03:37.347Z,66.81
2023-03-06T10:06:10.505Z,65.83
2023-03-06T10:08:46.598Z,66.22
2023-03-06T10:11:21.184Z,66.06
2023-03-06T10:13:52.834Z,65.36
2023-03-06T10:16:26.964Z,65.74
2023-03-06T10:18:56.189Z,66.46
2023-03-06T10:21:43.676Z,66.26
2023-03-06T10:24:21.567Z,65.93
2023-03-06T10:26:56.383Z,66.43
2023-03-06T10:29:43.687Z,67.10
2023-03-06T10:32:34.251Z,66.62
2023-03-06T10:35:15.976Z,66.26
2023-03-06T10:37:44.697Z,66.15
2023-03-06T10:40:17.987Z,65.52
2023-03-06T10:42:49.512Z,65.98
2023-03-06T10:45:20.875Z,65.65
2023-03-06T10:47:50.099Z,66.19
2023-03-06T10:50:27.727Z,65.79
2023-03-06T10:53:05.675Z,66.32
2023-03-06T10:55:35.690Z,65.69
2023-03-06T10:58:24.893Z,67.43
2023-03-06T11:01:03.805Z,65.11
2023-03-06T11:03:32.518Z,65.71
2023-03-06T11:06:12.930Z,66.12
2023-03-06T11:08:43.993Z,65.15
2023-03-06T11:11:16.926Z,64.71
2023-03-06T11:13:58.526Z,66.11
2023-03-06T11:16:30.394Z,64.58
2023-03-06T11:19:01.312Z,65.67
2023-03-06T11:21:31.840Z,64.97
2023-03-06T11:24:05.652Z,63.99
2023-03-06T11:26:38.618Z,62.75
2023-03-06T11:29:38.417Z,62.07
2023-03-06T11:32:12.960Z,63.21
2023-03-06T11:34:46.543Z,62.77
2023-03-06T11:37:22.022Z,61.94
2023-03-06T11:39:58.069Z,62.10
2023-03-06T11:42:29.306Z,60.93
2023-03-06T11:45:17.886Z,60.44
2023-03-06T11:47:49.368Z,61.77
2023-03-06T11:50:22.655Z,60.96
2023-03-06T11:52:55.543Z,60.41
2023-03-06T11:55:33.065Z,61.08
2023-03-06T11:58:23.105Z,59.94
2023-03-06T12:00:55.510Z,59.76
2023-03-06T12:03:43.013Z,59.78
2023-03-06T12:06:19.276Z,59.75
2023-03-06T12:08:58.451Z,59.65
2023-03-06T12:11:33.151Z,61.48
2023-03-06T12:14:13.031Z,61.23
2023-03-06T12:16:51.228Z,59.60
2023-03-06T12:19:31.178Z,59.48
2023-03-06T12:22:16.809Z,59.10
2023-03-06T12:25:12.659Z,59.24
2023-03-06T12:27:47.618Z,58.83
2023-03-06T12:30:26.361Z,59.00
2023-03-06T12:33:01.557Z,58.04
2023-03-06T12:35:54.492Z,59.80
2023-03-06T12:38:57.029Z,58.55
2023-03-06T12:41:34.942Z,57.84
2023-03-06T12:44:28.424Z,56.90
2023-03-06T12:46:59.672Z,56.91
2023-03-06T12:49:33.321Z,57.84
2023-03-06T12:52:02.831Z,57.42
2023-03-06T12:54:34.404Z,57.62
2023-03-06T12:57:03.055Z,57.95
2023-03-06T12:59:44.326Z,57.89
2023-03-06T13:02:42.719Z,58.01
2023-03-06T13:05:30.821Z,56.81
2023-03-06T13:08:13.717Z,56.83
2023-03-06T13:10:43.777Z,56.29
2023-03-06T13:13:32.128Z,55.90
2023-03-06T13:16:13.375Z,55.05
2023-03-06T13:18:54.257Z,54.94
2023-03-06T13:22:08.848Z,54.56
2023-03-06T13:24:39.203Z,55.16
2023-03-06T13:27:10.379Z,55.78
2023-03-06T13:30:21.520Z,55.92
2023-03-06T13:32:52.690Z,55.38
2023-03-06T13:35:48.609Z,55.74
2023-03-06T13:38:38.382Z,55.58
2023-03-06T13:41:47.431Z,56.20
2023-03-06T13:44:46.118Z,56.36
2023-03-06T13:47:31.019Z,57.41
2023-03-06T13:50:00.280Z,55.50
2023-03-06T13:52:37.027Z,53.45
2023-03-06T13:55:14.485Z,52.57
2023-03-06T13:57:53.698Z,52.35
2023-03-06T14:00:38.780Z,52.20
2023-03-06T14:03:47.575Z,53.21
2023-03-06T14:06:42.428Z,53.93
2023-03-06T14:09:17.064Z,53.27
2023-03-06T14:11:52.960Z,53.58
2023-03-06T14:14:33.279Z,52.38
2023-03-06T14:17:05.086Z,52.60
2023-03-06T14:19:39.887Z,53.31
2023-03-06T14:22:12.984Z,52.49
2023-03-06T14:24:45.900Z,52.66
2023-03-06T14:27:19.548Z,52.96
2023-03-06T14:29:49.794Z,52.68
2023-03-06T14:32:21.275Z,52.90
2023-03-06T14:34:50.162Z,53.70
2023-03-06T14:37:22.240Z,53.57
2023-03-06T14:39:50.988Z,52.59
2023-03-06T14:42:20.994Z,53.95
2023-03-06T14:45:02.306Z,52.77
2023-03-06T14:47:33.228Z,53.66
2023-03-06T14:50:24.139Z,53.71
2023-03-06T14:52:55.497Z,52.78
2023-03-06T14:55:26.977Z,53.42
2023-03-06T14:57:59.510Z,53.77
2023-03-06T15:00:35.580Z,53.71
2023-03-06T15:03:08.560Z,53.50
2023-03-06T15:05:37.324Z,53.38
2023-03-06T15:08:08.704Z,53.47
2023-03-06T15:10:38.786Z,53.45
2023-03-06T15:13:11.897Z,53.33
2023-03-06T15:15:41.948Z,53.13
2023-03-06T15:18:30.861Z,53.16
2023-03-06T15:21:09.886Z,52.85
2023-03-06T15:23:40.339Z,53.50
2023-03-06T15:26:27.506Z,54.22
2023-03-06T15:29:07.005Z,53.23
2023-03-06T15:31:40.066Z,54.00
2023-03-06T15:34:27.525Z,54.24
2023-03-06T15:36:58.069Z,53.31
2023-03-06T15:39:38.215Z,53.54
2023-03-06T15:42:21.096Z,55.09
2023-03-06T15:44:51.120Z,54.66
2023-03-06T15:47:21.460Z,55.31
2023-03-06T15:49:52.609Z,55.83
2023-03-06T15:52:21.741Z,55.09
2023-03-06T15:54:50.679Z,55.50
2023-03-06T15:57:23.435Z,55.28
2023-03-06T15:59:52.410Z,56.18
2023-03-06T16:02:24.198Z,56.21
2023-03-06T16:04:53.069Z,56.86
2023-03-06T16:07:21.761Z,58.21
2023-03-06T16:09:50.523Z,58.29
2023-03-06T16:12:20.581Z,58.73
2023-03-06T16:14:52.504Z,59.96
2023-03-06T16:17:22.525Z,60.42
2023-03-06T16:19:51.341Z,61.58
2023-03-06T16:22:20.154Z,62.55
2023-03-06T16:24:49.645Z,62.99
2023-03-06T16:27:23.443Z,63.47
2023-03-06T16:29:52.311Z,64.51
2023-03-06T16:32:22.415Z,64.61
2023-03-06T16:34:51.403Z,64.37
2023-03-06T16:37:20.106Z,64.84
2023-03-06T16:39:48.818Z,65.31
2023-03-06T16:42:17.668Z,65.38
2023-03-06T16:44:46.386Z,65.63
2023-03-06T16:47:15.060Z,66.13
2023-03-06T16:49:45.129Z,65.78
2023-03-06T16:52:14.525Z,66.12
2023-03-06T16:54:44.753Z,66.13
2023-03-06T16:57:15.846Z,66.25
2023-03-06T16:59:45.081Z,66.66
2023-03-06T17:02:14.207Z,66.18
2023-03-06T17:04:44.172Z,66.48
2023-03-06T17:07:12.963Z,65.99
2023-03-06T17:09:41.614Z,65.79
2023-03-06T17:12:10.823Z,65.96
2023-03-06T17:14:39.597Z,66.64
2023-03-06T17:17:08.325Z,66.38
2023-03-06T17:19:37.118Z,67.02
2023-03-06T17:22:07.260Z,66.24
2023-03-06T17:24:37.412Z,67.02
2023-03-06T17:27:06.333Z,67.38
2023-03-06T17:29:34.991Z,67.74
2023-03-06T17:32:03.777Z,67.12
2023-03-06T17:34:32.554Z,66.61
2023-03-06T17:37:01.481Z,67.34
2023-03-06T17:39:35.298Z,67.96
2023-03-06T17:42:04.497Z,68.37
2023-03-06T17:44:33.488Z,68.82
2023-03-06T17:47:02.277Z,68.22
2023-03-06T17:49:30.842Z,68.52
2023-03-06T17:52:02.739Z,69.17
2023-03-06T17:54:33.171Z,69.52
2023-03-06T17:57:03.632Z,69.89
2023-03-06T17:59:35.160Z,70.13
2023-03-06T18:02:06.106Z,70.24
2023-03-06T18:04:34.905Z,70.49
2023-03-06T18:07:03.603Z,71.01
2023-03-06T18:09:34.892Z,70.73
2023-03-06T18:12:03.593Z,70.54
2023-03-06T18:14:32.236Z,71.08
2023-03-06T18:17:00.828Z,71.28
2023-03-06T18:19:31.988Z,71.50
2023-03-06T18:22:00.619Z,71.86
2023-03-06T18:24:29.332Z,71.35
2023-03-06T18:26:59.385Z,71.61
2023-03-06T18:29:28.025Z,71.32
2023-03-06T18:31:58.744Z,71.73
2023-03-06T18:34:27.518Z,71.51
2023-03-06T18:36:56.210Z,71.60
2023-03-06T18:39:24.996Z,71.93
2023-03-06T18:41:53.970Z,71.38
2023-03-06T18:44:23.993Z,71.64
2023-03-06T18:46:52.778Z,71.13
2023-03-06T18:49:22.063Z,70.54
2023-03-06T18:51:51.452Z,70.91
2023-03-06T18:54:20.203Z,70.51
2023-03-06T18:56:48.857Z,70.21
2023-03-06T18:59:20.198Z,70.14
2023-03-06T19:01:51.838Z,70.68
2023-03-06T19:04:20.587Z,70.56
2023-03-06T19:06:49.375Z,69.63
2023-03-06T19:09:18.070Z,69.18
2023-03-06T19:11:47.488Z,68.81
2023-03-06T19:14:16.340Z,69.00
2023-03-06T19:16:45.153Z,67.91
2023-03-06T19:19:15.200Z,67.30
2023-03-06T19:21:43.903Z,67.75
2023-03-06T19:24:13.919Z,66.91
2023-03-06T19:26:43.758Z,67.30
2023-03-06T19:29:12.424Z,67.11
2023-03-06T19:31:41.356Z,66.90
2023-03-06T19:34:10.054Z,66.82
2023-03-06T19:36:40.912Z,67.37
2023-03-06T19:39:10.292Z,66.62
2023-03-06T19:41:39.021Z,66.69
2023-03-06T19:44:07.683Z,66.46
2023-03-06T19:46:36.316Z,65.73
2023-03-06T19:49:11.699Z,65.87
2023-03-06T19:51:41.796Z,65.39
2023-03-06T19:54:12.139Z,65.41
2023-03-06T19:56:41.128Z,65.96
2023-03-06T19:59:10.146Z,66.08
2023-03-06T20:01:39.620Z,65.96
2023-03-06T20:04:08.344Z,65.25
2023-03-06T20:06:38.690Z,66.15
2023-03-06T20:09:09.920Z,65.91
2023-03-06T20:11:39.173Z,65.44
2023-03-06T20:14:08.885Z,65.59
2023-03-06T20:16:37.878Z,65.69
2023-03-06T20:19:06.925Z,65.74
2023-03-06T20:21:37.509Z,65.81
2023-03-06T20:24:08.438Z,65.11
2023-03-06T20:26:38.470Z,65.29
2023-03-06T20:29:07.360Z,65.52
2023-03-06T20:31:36.135Z,66.44
2023-03-06T20:34:05.466Z,65.53
2023-03-06T20:36:36.345Z,65.83
2023-03-06T20:39:07.753Z,66.20
2023-03-06T20:41:37.761Z,65.71
2023-03-06T20:44:08.324Z,66.31
2023-03-06T20:46:37.356Z,66.73
2023-03-06T20:49:06.119Z,66.90
2023-03-06T20:51:37.560Z,66.11
2023-03-06T20:54:07.308Z,65.99
2023-03-06T20:56:39.403Z,65.87
2023-03-06T20:59:08.314Z,66.43
2023-03-06T21:01:39.011Z,65.47
2023-03-06T21:04:08.600Z,65.88
2023-03-06T21:06:37.864Z,65.66
2023-03-06T21:09:07.440Z,65.95
2023-03-06T21:11:37.907Z,65.61
2023-03-06T21:14:07.032Z,65.57
2023-03-06T21:16:36.145Z,65.43
2023-03-06T21:19:05.167Z,66.16
2023-03-06T21:21:35.792Z,65.83
2023-03-06T21:24:04.701Z,65.70
2023-03-06T21:26:34.754Z,66.13
2023-03-06T21:29:05.256Z,65.97
2023-03-06T21:31:34.515Z,65.75
2023-03-06T21:34:05.187Z,65.36
2023-03-06T21:36:34.405Z,66.03
2023-03-06T21:39:06.025Z,65.67
2023-03-06T21:41:35.008Z,65.33
2023-03-06T21:44:06.570Z,65.76
2023-03-06T21:46:35.637Z,65.39
2023-03-06T21:49:05.133Z,65.56
2023-03-06T21:51:33.998Z,65.71
2023-03-06T21:54:03.112Z,66.17
2023-03-06T21:56:33.363Z,66.32
2023-03-06T21:59:02.236Z,67.50
2023-03-06T22:01:32.316Z,67.39
2023-03-06T22:04:01.228Z,67.57
2023-03-06T22:06:31.282Z,67.87
2023-03-06T22:09:00.873Z,68.14
2023-03-06T22:11:31.227Z,68.80
2023-03-06T22:14:00.071Z,68.94
2023-03-06T22:16:28.826Z,69.52
2023-03-06T22:18:59.164Z,69.38
2023-03-06T22:21:27.918Z,69.69
2023-03-06T22:23:58.634Z,69.31
2023-03-06T22:26:27.960Z,69.88
2023-03-06T22:28:56.855Z,70.33
2023-03-06T22:31:28.277Z,69.12
2023-03-06T22:33:59.490Z,69.65
2023-03-06T22:36:30.300Z,69.55
2023-03-06T22:39:00.602Z,70.16
2023-03-06T22:41:29.733Z,70.03
2023-03-06T22:43:58.495Z,70.26
2023-03-06T22:46:27.669Z,69.53
2023-03-06T22:48:59.221Z,69.82
2023-03-06T22:51:29.607Z,69.59
2023-03-06T22:53:58.584Z,70.46
2023-03-06T22:56:27.155Z,70.23
2023-03-06T22:58:57.736Z,70.83
2023-03-06T23:01:28.739Z,69.77
2023-03-06T23:04:00.437Z,70.52
2023-03-06T23:06:30.833Z,70.25
2023-03-06T23:09:01.257Z,69.98
2023-03-06T23:11:30.889Z,70.81
2023-03-06T23:14:19.217Z,70.45
2023-03-06T23:17:06.587Z,70.29
2023-03-06T23:19:55.269Z,70.49
2023-03-06T23:22:42.738Z,69.84
2023-03-06T23:25:29.684Z,70.35
2023-03-06T23:27:58.385Z,70.31
2023-03-06T23:30:27.027Z,69.87
2023-03-06T23:32:55.761Z,69.86
2023-03-06T23:35:25.943Z,70.24
2023-03-06T23:37:54.655Z,69.70
2023-03-06T23:40:23.576Z,69.95
2023-03-06T23:42:52.227Z,69.64
2023-03-06T23:45:20.868Z,69.94
2023-03-06T23:47:49.749Z,70.27
2023-03-06T23:50:18.848Z,70.49
2023-03-06T23:52:48.795Z,69.68
2023-03-06T23:55:17.582Z,70.35
2023-03-06T23:57:46.222Z,70.22
